Time;durP1;ratioP1;P1;durP2;ratioP2;P2;SDS_P1;SDS_P2;PMS_P1;PMS_P2;Temp;Humidity;BMP_temperature;BMP_pressure;BME280_temperature;BME280_humidity;BME280_pressure;Samples;Min_cycle;Max_cycle;Signal;HPM_P1;HPM_P2
2022/04/29 00:01:25;;;;;;;8.90;3.35;;;;;;;9.12;55.00;100429.95;1630683;87;21012;-69
2022/04/29 00:03:54;;;;;;;8.40;2.90;;;;;;;9.07;55.14;100429.16;1631826;87;21009;-70
2022/04/29 00:06:21;;;;;;;6.40;3.37;;;;;;;8.98;54.80;100422.91;1676181;85;21151;-68
2022/04/29 00:08:49;;;;;;;5.75;3.15;;;;;;;8.90;55.23;100419.41;1677130;85;21069;-72
2022/04/29 00:11:15;;;;;;;5.97;2.92;;;;;;;8.84;55.64;100414.49;1637894;87;21020;-70
2022/04/29 00:13:45;;;;;;;8.63;3.50;;;;;;;8.82;55.76;100418.65;1630992;87;21085;-71
2022/04/29 00:16:17;;;;;;;6.40;2.90;;;;;;;8.79;56.37;100421.94;1634403;86;21052;-68
2022/04/29 00:18:48;;;;;;;6.92;3.70;;;;;;;8.72;56.23;100413.48;1633915;87;21267;-69
2022/04/29 00:21:14;;;;;;;6.58;3.37;;;;;;;8.67;55.84;100420.92;1634456;87;21040;-72
2022/04/29 00:23:46;;;;;;;9.23;3.33;;;;;;;8.59;56.51;100424.56;1630765;87;21033;-71
2022/04/29 00:26:14;;;;;;;6.62;2.87;;;;;;;8.46;56.84;100423.22;1634346;87;21032;-71
2022/04/29 00:28:47;;;;;;;5.45;3.17;;;;;;;8.37;57.63;100423.02;1630195;87;21065;-70
2022/04/29 00:31:14;;;;;;;6.05;3.00;;;;;;;8.35;57.58;100418.36;1634724;87;21752;-70
2022/04/29 00:33:44;;;;;;;7.65;3.42;;;;;;;8.30;57.21;100415.64;1634190;87;21001;-68
2022/04/29 00:36:14;;;;;;;6.83;2.80;;;;;;;8.24;57.10;100417.58;1634239;87;21050;-70
2022/04/29 00:38:47;;;;;;;4.72;2.90;;;;;;;8.11;57.17;100414.91;1630813;87;21071;-71
2022/04/29 00:41:19;;;;;;;7.12;3.20;;;;;;;7.93;57.23;100410.88;1618554;87;21016;-70
2022/04/29 00:44:09;;;;;;;7.47;3.45;;;;;;;7.78;58.18;100406.23;1631860;87;21475;-69
2022/04/29 00:46:40;;;;;;;9.45;3.02;;;;;;;7.73;59.24;100404.91;1634372;87;21540;-69
2022/04/29 00:49:10;;;;;;;5.03;2.90;;;;;;;7.72;60.01;100410.94;1630984;87;21001;-70
2022/04/29 00:51:42;;;;;;;5.40;3.30;;;;;;;7.72;60.74;100412.30;1618812;87;21057;-69
2022/04/29 00:54:16;;;;;;;7.03;3.08;;;;;;;7.72;61.26;100415.59;1661615;86;21527;-70
2022/04/29 00:56:54;;;;;;;5.17;2.98;;;;;;;7.73;61.48;100411.77;1661042;85;21167;-71
2022/04/29 00:59:50;;;;;;;6.58;3.27;;;;;;;7.75;61.50;100416.40;1634240;86;21550;-70
2022/04/29 01:02:16;;;;;;;6.45;3.05;;;;;;;7.74;61.66;100410.11;1594699;87;21582;-70
2022/04/29 01:05:05;;;;;;;4.17;2.83;;;;;;;7.73;61.88;100411.19;1631276;87;21118;-70
2022/04/29 01:07:36;;;;;;;6.17;2.85;;;;;;;7.71;61.91;100410.64;1634358;87;21057;-67
2022/04/29 01:10:07;;;;;;;6.72;3.60;;;;;;;7.67;61.65;100411.78;1636097;86;21309;-71
2022/04/29 01:12:38;;;;;;;7.10;3.27;;;;;;;7.66;61.39;100407.91;1647559;86;21057;-68
2022/04/29 01:15:13;;;;;;;4.73;3.00;;;;;;;7.66;61.06;100405.17;1645740;86;21097;-69
2022/04/29 01:17:47;;;;;;;11.88;3.35;;;;;;;7.62;61.19;100406.30;1621804;86;21606;-69
2022/04/29 01:20:19;;;;;;;7.35;3.05;;;;;;;7.53;60.94;100401.10;1647603;86;20998;-69
2022/04/29 01:22:47;;;;;;;5.42;3.30;;;;;;;7.46;61.44;100397.28;1647926;86;21053;-70
2022/04/29 01:25:21;;;;;;;6.87;3.50;;;;;;;7.43;61.62;100393.72;1647584;86;21026;-69
2022/04/29 01:27:51;;;;;;;5.50;2.77;;;;;;;7.42;61.65;100392.09;1645819;86;21516;-68
2022/04/29 01:30:21;;;;;;;7.97;2.87;;;;;;;7.41;61.99;100391.80;1646459;86;21120;-71
2022/04/29 01:32:49;;;;;;;5.50;3.00;;;;;;;7.39;62.00;100392.63;1644949;86;21025;-68
2022/04/29 01:35:18;;;;;;;8.50;3.12;;;;;;;7.35;62.03;100386.06;1647665;86;21120;-69
2022/04/29 01:37:48;;;;;;;7.12;2.83;;;;;;;7.29;62.39;100387.44;1647242;86;21614;-71
2022/04/29 01:40:21;;;;;;;5.50;3.08;;;;;;;7.18;62.14;100384.45;1635266;86;21600;-72
2022/04/29 01:42:51;;;;;;;5.40;3.50;;;;;;;7.04;62.34;100390.50;1645839;86;21029;-71
2022/04/29 01:45:23;;;;;;;5.47;2.87;;;;;;;6.91;62.72;100395.95;1645714;86;21518;-69
2022/04/29 01:47:51;;;;;;;4.33;2.50;;;;;;;6.84;63.50;100398.71;1647631;86;21665;-68
2022/04/29 01:50:36;;;;;;;6.97;3.25;;;;;;;6.78;64.23;100389.12;1630696;86;21141;-69
2022/04/29 01:53:05;;;;;;;4.90;2.62;;;;;;;6.77;64.81;100400.34;1644472;86;21076;-69
2022/04/29 01:55:32;;;;;;;4.90;2.77;;;;;;;6.78;64.94;100399.24;1648661;86;21082;-68
2022/04/29 01:58:02;;;;;;;4.85;3.02;;;;;;;6.79;65.03;100400.34;1624074;86;21062;-68
2022/04/29 02:00:30;;;;;;;9.98;2.98;;;;;;;6.82;64.96;100401.16;1648671;86;21026;-69
2022/04/29 02:02:57;;;;;;;5.85;3.30;;;;;;;6.86;64.82;100399.27;1648863;86;21026;-69
2022/04/29 02:05:25;;;;;;;5.10;2.95;;;;;;;6.84;64.55;100401.45;1644152;86;21680;-71
2022/04/29 02:07:53;;;;;;;8.18;3.10;;;;;;;6.77;64.36;100398.98;1648289;86;21058;-69
2022/04/29 02:10:20;;;;;;;4.50;2.87;;;;;;;6.72;64.25;100397.03;1643597;86;21517;-70
2022/04/29 02:12:50;;;;;;;6.85;3.05;;;;;;;6.66;64.30;100398.97;1661394;84;21023;-68
2022/04/29 02:15:17;;;;;;;7.12;3.02;;;;;;;6.62;64.46;100399.80;1683571;84;21014;-68
2022/04/29 02:17:49;;;;;;;5.17;3.05;;;;;;;6.56;63.89;100398.95;1679368;84;20983;-68
2022/04/29 02:20:21;;;;;;;3.95;2.87;;;;;;;6.53;64.32;100401.70;1682532;84;21077;-69
2022/04/29 02:22:57;;;;;;;5.15;2.77;;;;;;;6.51;64.48;100400.31;1637695;87;20995;-67
2022/04/29 02:25:27;;;;;;;8.85;4.03;;;;;;;6.52;64.65;100404.14;1641585;86;21336;-68
2022/04/29 02:27:56;;;;;;;6.85;3.85;;;;;;;6.53;64.52;100404.44;1639951;87;21098;-69
2022/04/29 02:30:25;;;;;;;5.47;2.85;;;;;;;6.54;64.39;100410.17;1679029;84;20958;-67
2022/04/29 02:32:52;;;;;;;6.00;3.17;;;;;;;6.53;64.05;100411.28;1689632;84;21098;-69
2022/04/29 02:35:23;;;;;;;7.50;3.58;;;;;;;6.54;64.37;100414.28;1683710;84;21533;-68
2022/04/29 02:37:51;;;;;;;5.53;3.47;;;;;;;6.56;64.40;100418.95;1683183;84;21491;-69
2022/04/29 02:40:18;;;;;;;9.13;3.77;;;;;;;6.55;64.74;100414.55;1638964;87;21055;-70
2022/04/29 02:42:47;;;;;;;6.42;3.52;;;;;;;6.50;64.40;100410.43;1618726;87;21074;-70
2022/04/29 02:45:14;;;;;;;6.35;3.75;;;;;;;6.51;64.25;100409.89;1634350;86;21054;-68
2022/04/29 02:47:48;;;;;;;5.87;4.12;;;;;;;6.50;64.58;100414.53;1646178;86;21067;-68
2022/04/29 02:50:17;;;;;;;8.03;4.72;;;;;;;6.43;65.03;100418.10;1682565;84;21064;-70
2022/04/29 02:52:56;;;;;;;5.53;3.45;;;;;;;6.32;65.54;100420.81;1682491;84;21074;-70
2022/04/29 02:55:27;;;;;;;6.90;3.70;;;;;;;6.34;65.79;100412.33;1678793;84;21089;-71
2022/04/29 02:57:55;;;;;;;8.78;4.12;;;;;;;6.39;65.97;100418.35;1683054;84;21055;-70
2022/04/29 03:00:24;;;;;;;8.08;4.90;;;;;;;6.43;66.13;100417.53;1683850;84;21052;-70
2022/04/29 03:02:51;;;;;;;10.93;5.45;;;;;;;6.48;66.33;100420.02;1690174;84;21467;-69
2022/04/29 03:05:20;;;;;;;10.82;4.70;;;;;;;6.44;66.10;100419.20;1688852;84;21062;-67
2022/04/29 03:07:48;;;;;;;8.58;4.58;;;;;;;6.47;66.07;100420.56;1683098;84;21023;-67
2022/04/29 03:10:17;;;;;;;10.38;4.50;;;;;;;6.51;65.99;100424.42;1630569;86;21002;-72
2022/04/29 03:12:48;;;;;;;9.45;5.05;;;;;;;6.52;66.03;100433.43;1648051;86;21590;-70
2022/04/29 03:15:29;;;;;;;9.55;5.22;;;;;;;6.49;66.22;100434.81;1638724;87;21040;-70
2022/04/29 03:20:47;;;;;;;9.73;5.40;;;;;;;6.47;66.10;100431.52;1628357;87;21071;-68
2022/04/29 03:23:14;;;;;;;14.25;6.42;;;;;;;6.51;66.34;100431.27;1654004;86;21027;-70
2022/04/29 03:25:57;;;;;;;11.97;5.65;;;;;;;6.58;66.37;100433.17;1652944;86;21040;-68
2022/04/29 03:28:27;;;;;;;10.80;5.97;;;;;;;6.65;66.15;100437.02;1649544;86;21075;-69
2022/04/29 03:30:54;;;;;;;12.18;5.80;;;;;;;6.73;66.16;100444.44;1652883;86;21055;-68
2022/04/29 03:33:24;;;;;;;12.85;5.92;;;;;;;6.81;66.14;100448.00;1689138;84;21085;-68
2022/04/29 03:35:54;;;;;;;18.90;6.15;;;;;;;6.89;66.17;100442.55;1690918;84;21043;-69
2022/04/29 03:38:25;;;;;;;10.58;5.50;;;;;;;6.96;66.01;100450.50;1692110;83;21074;-68
2022/04/29 03:40:53;;;;;;;9.65;5.15;;;;;;;6.99;65.65;100452.69;1690593;84;21057;-70
2022/04/29 03:43:25;;;;;;;14.78;5.60;;;;;;;7.01;65.66;100456.79;1685899;84;21017;-68
2022/04/29 03:45:54;;;;;;;14.58;5.30;;;;;;;7.10;65.87;100452.96;1690710;84;21094;-68
2022/04/29 03:48:26;;;;;;;14.63;4.90;;;;;;;7.19;65.76;100454.61;1628142;87;21109;-67
2022/04/29 03:50:56;;;;;;;12.55;5.25;;;;;;;7.25;65.63;100461.73;1651816;86;21058;-67
2022/04/29 03:53:24;;;;;;;11.45;6.12;;;;;;;7.28;65.38;100458.43;1647309;85;21572;-68
2022/04/29 03:55:57;;;;;;;11.88;5.15;;;;;;;7.33;65.27;100463.11;1692055;84;21038;-71
2022/04/29 03:58:29;;;;;;;17.12;6.47;;;;;;;7.40;65.32;100464.20;1690006;84;21041;-69
2022/04/29 04:00:57;;;;;;;13.40;6.67;;;;;;;7.48;65.32;100460.91;1690334;84;21063;-69
2022/04/29 04:03:40;;;;;;;12.45;5.28;;;;;;;7.58;65.22;100466.09;1668369;84;21042;-69
2022/04/29 04:08:57;;;;;;;16.27;5.97;;;;;;;7.76;64.73;100469.62;1689859;84;21037;-68
2022/04/29 04:11:28;;;;;;;11.65;5.60;;;;;;;7.89;64.62;100469.61;1685371;83;21080;-68
2022/04/29 04:13:58;;;;;;;10.28;5.70;;;;;;;7.99;64.32;100470.12;1690436;84;21050;-68
2022/04/29 04:16:36;;;;;;;9.45;5.20;;;;;;;8.12;64.11;100472.01;1689895;84;21028;-69
2022/04/29 04:19:04;;;;;;;13.08;5.60;;;;;;;8.22;63.67;100473.31;1693150;84;21159;-69
2022/04/29 04:21:31;;;;;;;11.12;5.65;;;;;;;8.31;63.22;100473.55;1691058;84;21519;-70
2022/04/29 04:23:59;;;;;;;12.25;5.60;;;;;;;8.35;62.31;100471.91;1692171;84;21137;-68
2022/04/29 04:26:26;;;;;;;9.90;5.83;;;;;;;8.42;62.31;100475.72;1686680;84;21104;-70
2022/04/29 04:28:56;;;;;;;12.00;6.03;;;;;;;8.52;62.24;100474.84;1690580;84;21046;-69
2022/04/29 04:31:29;;;;;;;14.50;6.17;;;;;;;8.58;62.01;100477.05;1674795;84;21041;-70
2022/04/29 04:33:58;;;;;;;9.80;5.58;;;;;;;8.62;61.68;100478.11;1683434;84;21010;-72
2022/04/29 04:36:30;;;;;;;7.33;4.53;;;;;;;8.72;61.69;100482.17;1682309;84;21117;-69
2022/04/29 04:38:57;;;;;;;14.75;5.10;;;;;;;8.83;61.11;100488.98;1683936;84;21051;-71
2022/04/29 04:41:25;;;;;;;9.00;4.67;;;;;;;8.92;60.76;100485.91;1658896;85;21112;-72
2022/04/29 04:43:53;;;;;;;8.10;4.05;;;;;;;9.04;60.57;100479.23;1684028;84;21808;-67
2022/04/29 04:46:20;;;;;;;7.28;3.72;;;;;;;9.15;60.25;100481.33;1691671;84;21153;-70
2022/04/29 04:49:06;;;;;;;10.55;4.03;;;;;;;9.25;59.76;100482.62;1660336;84;21015;-70
2022/04/29 04:51:54;;;;;;;7.25;3.75;;;;;;;9.36;59.11;100486.95;1681003;84;21088;-68
2022/04/29 04:54:20;;;;;;;6.55;3.62;;;;;;;9.48;58.54;100486.55;1683658;84;21117;-73
2022/04/29 04:56:48;;;;;;;6.78;3.92;;;;;;;9.58;58.55;100486.20;1628440;87;21226;-67
2022/04/29 04:59:18;;;;;;;9.20;3.62;;;;;;;9.68;58.21;100487.48;1653183;85;21039;-66
2022/04/29 05:01:49;;;;;;;10.30;4.08;;;;;;;9.79;57.98;100481.88;1653091;86;21178;-67
2022/04/29 05:04:37;;;;;;;9.33;3.58;;;;;;;9.88;57.43;100478.73;1649379;86;21235;-71
2022/04/29 05:07:05;;;;;;;9.13;4.35;;;;;;;10.01;57.22;100475.03;1682843;84;21061;-69
2022/04/29 05:09:38;;;;;;;8.68;4.05;;;;;;;10.10;56.80;100474.63;1640368;87;21078;-69
2022/04/29 05:12:09;;;;;;;8.73;3.50;;;;;;;10.20;56.25;100479.22;1686773;84;21046;-68
2022/04/29 05:14:48;;;;;;;8.75;4.30;;;;;;;10.28;56.00;100475.81;1681372;84;21059;-69
2022/04/29 05:17:19;;;;;;;6.72;3.85;;;;;;;10.38;55.77;100481.75;1681378;84;21097;-70
2022/04/29 05:20:09;;;;;;;5.62;3.08;;;;;;;10.47;55.37;100483.32;1635457;87;21483;-70
2022/04/29 05:22:39;;;;;;;7.55;2.80;;;;;;;10.57;54.46;100480.43;1679420;85;21094;-68
2022/04/29 05:25:09;;;;;;;4.85;2.85;;;;;;;10.64;53.92;100484.20;1598811;87;21534;-67
2022/04/29 05:27:38;;;;;;;8.98;2.80;;;;;;;10.74;53.97;100483.78;1605871;85;21031;-70
2022/04/29 05:30:30;;;;;;;9.53;3.12;;;;;;;10.83;53.66;100482.00;1691682;84;21090;-69
2022/04/29 05:33:17;;;;;;;4.55;2.22;;;;;;;10.93;53.64;100483.78;1662005;84;21226;-69
2022/04/29 05:36:04;;;;;;;4.22;2.92;;;;;;;11.01;53.37;100485.03;1673452;84;21275;-70
2022/04/29 05:44:25;;;;;;;6.58;2.80;;;;;;;11.29;51.53;100492.05;1681714;84;21478;-67
2022/04/29 05:46:54;;;;;;;5.20;3.17;;;;;;;11.39;51.20;100489.68;1681710;84;21045;-70
2022/04/29 05:49:25;;;;;;;6.55;2.70;;;;;;;11.47;51.13;100494.50;1667515;84;22151;-68
2022/04/29 05:51:52;;;;;;;7.25;2.62;;;;;;;11.58;51.16;100501.23;1682618;84;21012;-71
2022/04/29 05:54:21;;;;;;;5.05;3.12;;;;;;;11.67;50.64;100493.88;1636236;87;21074;-68
2022/04/29 05:56:51;;;;;;;5.00;2.70;;;;;;;11.76;50.20;100503.11;1635021;86;21036;-70
2022/04/29 05:59:19;;;;;;;4.75;2.37;;;;;;;11.81;49.33;100497.49;1660810;85;21159;-69
2022/04/29 06:02:05;;;;;;;6.35;2.40;;;;;;;11.90;48.69;100501.75;1660304;86;21557;-68
2022/04/29 06:04:35;;;;;;;8.23;2.80;;;;;;;12.01;48.30;100509.84;1655115;85;21072;-67
2022/04/29 06:07:06;;;;;;;4.33;2.10;;;;;;;12.11;48.10;100505.51;1654915;86;21016;-70
2022/04/29 06:09:37;;;;;;;5.50;2.75;;;;;;;12.21;47.19;100503.68;1658330;85;21066;-70
2022/04/29 06:12:07;;;;;;;7.67;2.72;;;;;;;12.28;46.84;100503.52;1653855;84;21745;-69
2022/04/29 06:14:37;;;;;;;6.12;3.02;;;;;;;12.38;46.45;100506.66;1664963;85;21101;-68
2022/04/29 06:17:28;;;;;;;10.50;3.20;;;;;;;12.47;46.31;100510.07;1668309;84;21179;-68
2022/04/29 06:20:16;;;;;;;23.27;2.87;;;;;;;12.57;45.41;100506.27;1669387;84;21568;-67
2022/04/29 06:23:01;;;;;;;5.37;2.55;;;;;;;12.62;45.28;100506.95;1677900;84;21052;-68
2022/04/29 06:25:31;;;;;;;10.80;2.98;;;;;;;12.66;45.41;100510.75;1667946;84;21100;-66
2022/04/29 06:27:59;;;;;;;16.60;3.72;;;;;;;12.75;45.48;100512.77;1665873;85;21176;-72
2022/04/29 06:30:28;;;;;;;14.65;2.87;;;;;;;12.81;45.11;100510.72;1663896;84;21006;-71
2022/04/29 06:33:03;;;;;;;12.37;3.02;;;;;;;12.89;44.70;100509.98;1666210;84;21068;-68
2022/04/29 06:35:36;;;;;;;12.98;2.83;;;;;;;12.99;44.49;100519.43;1663657;85;21185;-71
2022/04/29 06:38:03;;;;;;;14.53;3.25;;;;;;;13.08;43.94;100511.21;1668821;85;21151;-70
2022/04/29 06:40:50;;;;;;;8.40;2.80;;;;;;;13.19;44.21;100517.30;1668095;85;21550;-67
2022/04/29 06:43:20;;;;;;;17.05;2.80;;;;;;;13.32;44.25;100514.24;1644328;84;21162;-69
2022/04/29 06:46:07;;;;;;;8.38;2.50;;;;;;;13.43;43.59;100520.88;1647679;84;21580;-69
2022/04/29 06:48:55;;;;;;;8.80;3.10;;;;;;;13.47;43.11;100524.67;1664539;85;21014;-69
2022/04/29 06:51:43;;;;;;;12.85;2.95;;;;;;;13.50;42.88;100523.48;1667643;84;21055;-68
2022/04/29 06:54:17;;;;;;;12.43;3.15;;;;;;;13.58;42.77;100531.60;1666203;85;21290;-67
2022/04/29 06:56:49;;;;;;;10.88;3.00;;;;;;;13.66;42.58;100529.21;1670669;84;21024;-69
2022/04/29 06:59:18;;;;;;;7.53;2.75;;;;;;;13.71;42.62;100534.06;1665938;85;21023;-70
2022/04/29 07:01:46;;;;;;;9.88;2.75;;;;;;;13.79;42.75;100533.02;1666894;84;21102;-66
2022/04/29 07:04:13;;;;;;;10.13;2.60;;;;;;;13.89;42.74;100529.19;1665682;85;21021;-66
2022/04/29 07:06:44;;;;;;;9.75;3.00;;;;;;;13.98;42.38;100531.42;1676001;84;21154;-65
2022/04/29 07:09:11;;;;;;;17.45;2.95;;;;;;;14.02;42.00;100524.12;1666017;85;21004;-66
2022/04/29 07:12:00;;;;;;;10.20;2.70;;;;;;;14.10;41.99;100526.66;1607996;88;21080;-70
2022/04/29 07:14:35;;;;;;;6.50;2.37;;;;;;;14.19;41.04;100529.48;1597888;86;21075;-70
2022/04/29 07:17:10;;;;;;;6.90;2.60;;;;;;;14.24;40.83;100524.59;1655015;85;21054;-69
2022/04/29 07:19:40;;;;;;;9.08;2.60;;;;;;;14.31;40.83;100519.96;1656664;85;21791;-70
2022/04/29 07:22:10;;;;;;;5.92;2.00;;;;;;;14.41;40.62;100519.44;1658404;85;21043;-68
2022/04/29 07:24:40;;;;;;;6.40;2.40;;;;;;;14.47;40.38;100524.51;1689668;84;21411;-70
2022/04/29 07:27:11;;;;;;;5.47;1.65;;;;;;;14.56;39.81;100520.94;1678150;84;21058;-69
2022/04/29 07:29:41;;;;;;;8.58;1.87;;;;;;;14.66;39.90;100517.03;1680699;84;21058;-67
2022/04/29 07:32:10;;;;;;;5.30;2.00;;;;;;;14.76;39.74;100515.90;1680606;84;21967;-71
2022/04/29 07:43:24;;;;;;;11.33;2.10;;;;;;;14.80;38.22;100509.43;1680335;84;21137;-66
2022/04/29 07:45:55;;;;;;;5.55;1.57;;;;;;;14.70;38.08;100512.48;1635334;87;21023;-68
2022/04/29 07:48:30;;;;;;;5.83;1.80;;;;;;;14.60;38.68;100509.45;1689404;84;21027;-69
2022/04/29 07:51:02;;;;;;;6.05;2.00;;;;;;;14.61;38.82;100509.69;1683134;84;21024;-67
2022/04/29 07:53:34;;;;;;;6.62;1.90;;;;;;;14.63;39.33;100512.14;1681704;84;21061;-69
2022/04/29 07:56:02;;;;;;;3.87;1.80;;;;;;;14.73;38.71;100506.28;1686244;84;22234;-69
2022/04/29 07:58:32;;;;;;;10.55;2.08;;;;;;;14.80;38.27;100506.66;1689106;84;21597;-71
2022/04/29 08:01:01;;;;;;;7.40;1.87;;;;;;;14.88;38.11;100503.62;1689497;84;21005;-67
2022/04/29 08:03:31;;;;;;;8.58;2.12;;;;;;;14.91;37.94;100504.36;1684008;83;21034;-68
2022/04/29 08:06:02;;;;;;;5.70;1.98;;;;;;;14.91;37.54;100505.75;1681513;84;22177;-69
2022/04/29 08:08:39;;;;;;;6.92;1.80;;;;;;;14.89;38.34;100500.30;1658607;85;21090;-70
2022/04/29 08:11:09;;;;;;;10.10;2.15;;;;;;;14.90;37.80;100500.53;1682592;84;21097;-69
2022/04/29 08:13:39;;;;;;;7.58;1.98;;;;;;;14.92;37.67;100502.41;1682234;84;21026;-70
2022/04/29 08:16:21;;;;;;;12.25;2.67;;;;;;;14.97;38.16;100496.70;1643114;84;22391;-67
2022/04/29 08:18:52;;;;;;;6.03;2.15;;;;;;;15.01;37.45;100496.28;1672208;84;21156;-70
2022/04/29 08:21:24;;;;;;;4.22;2.00;;;;;;;15.02;37.32;100497.10;1681850;84;21025;-67
2022/04/29 08:23:53;;;;;;;8.90;1.92;;;;;;;15.07;37.52;100488.61;1675660;84;21214;-67
2022/04/29 08:26:21;;;;;;;8.20;2.10;;;;;;;15.21;38.16;100485.67;1689717;84;21568;-69
2022/04/29 08:28:51;;;;;;;8.10;2.00;;;;;;;15.41;38.26;100483.34;1690302;84;21053;-73
2022/04/29 08:31:21;;;;;;;4.92;1.85;;;;;;;15.58;38.08;100476.38;1691593;84;21565;-69
2022/04/29 08:33:56;;;;;;;5.08;2.33;;;;;;;15.73;37.90;100475.58;1645274;86;21040;-68
2022/04/29 08:36:22;;;;;;;10.70;1.98;;;;;;;15.98;37.42;100477.78;1693679;84;21544;-69
2022/04/29 08:38:53;;;;;;;6.47;2.05;;;;;;;16.24;37.21;100473.50;1680007;84;21056;-68
2022/04/29 08:41:22;;;;;;;6.08;1.98;;;;;;;16.46;36.17;100477.73;1653698;86;21464;-68
2022/04/29 08:43:55;;;;;;;8.00;2.22;;;;;;;16.59;35.67;100472.48;1682737;84;21424;-68
2022/04/29 08:46:25;;;;;;;;;;;;;;;16.70;35.74;100470.09;1664733;84;21080;-68
2022/04/29 08:48:56;;;;;;;3.12;1.92;;;;;;;16.81;35.97;100465.52;1683775;84;21157;-71
2022/04/29 08:51:27;;;;;;;9.05;2.45;;;;;;;16.97;36.44;100462.94;1656772;84;21102;-68
2022/04/29 08:53:57;;;;;;;4.30;2.10;;;;;;;17.01;35.86;100462.48;1659743;84;21169;-66
2022/04/29 08:59:14;;;;;;;3.87;2.08;;;;;;;16.46;34.57;100466.03;1644911;86;21063;-69
2022/04/29 09:01:44;;;;;;;4.92;1.75;;;;;;;16.05;35.06;100460.84;1632236;86;21157;-71
2022/04/29 09:04:11;;;;;;;4.80;2.12;;;;;;;15.88;35.61;100457.54;1679775;84;21045;-66
2022/04/29 09:06:48;;;;;;;6.75;1.87;;;;;;;15.82;35.48;100458.31;1679592;84;21169;-66
2022/04/29 09:09:21;;;;;;;4.95;2.05;;;;;;;15.69;36.02;100455.98;1680583;84;21123;-68
2022/04/29 09:12:14;;;;;;;3.62;1.62;;;;;;;15.67;36.57;100462.46;1656544;85;21075;-69
2022/04/29 09:14:41;;;;;;;7.67;2.37;;;;;;;15.76;36.72;100461.02;1653594;84;21132;-68
2022/04/29 09:17:28;;;;;;;4.17;2.35;;;;;;;15.88;36.56;100451.98;1649111;85;21019;-69
2022/04/29 09:19:56;;;;;;;6.05;2.98;;;;;;;16.00;36.77;100454.67;1684722;84;21494;-69
2022/04/29 09:22:30;;;;;;;5.40;2.77;;;;;;;16.13;36.02;100456.97;1668801;84;21057;-69
2022/04/29 09:25:03;;;;;;;6.17;2.75;;;;;;;16.07;36.41;100452.17;1690210;84;21044;-70
2022/04/29 09:27:58;;;;;;;6.05;3.08;;;;;;;16.03;36.65;100455.39;1653013;84;21756;-70
2022/04/29 09:30:40;;;;;;;7.83;2.83;;;;;;;16.04;36.86;100452.28;1632399;87;21046;-68
2022/04/29 09:33:23;;;;;;;6.60;3.12;;;;;;;15.79;35.27;100444.27;1599436;87;21188;-67
2022/04/29 09:36:02;;;;;;;5.97;3.08;;;;;;;15.55;36.63;100450.66;1566956;90;21595;-69
2022/04/29 09:41:27;;;;;;;4.22;2.70;;;;;;;15.36;36.41;100447.42;1691715;83;21056;-71
2022/04/29 09:43:55;;;;;;;4.00;2.40;;;;;;;15.16;36.92;100442.81;1689463;84;21118;-71
2022/04/29 09:46:24;;;;;;;7.08;2.85;;;;;;;15.14;37.34;100448.70;1690360;84;21707;-67
2022/04/29 09:49:04;;;;;;;5.12;3.02;;;;;;;15.12;37.36;100443.22;1686982;83;21129;-70
2022/04/29 09:51:46;;;;;;;7.95;2.60;;;;;;;15.09;37.63;100444.70;1692789;84;21128;-68
2022/04/29 09:54:26;;;;;;;5.55;2.85;;;;;;;15.02;37.33;100449.36;1688611;83;21138;-68
2022/04/29 09:57:12;;;;;;;9.28;2.80;;;;;;;14.88;37.62;100441.20;1693822;84;21049;-69
2022/04/29 09:59:51;;;;;;;5.03;2.05;;;;;;;14.84;38.18;100441.04;1692869;84;21112;-68
2022/04/29 10:02:23;;;;;;;4.67;2.50;;;;;;;14.85;38.44;100443.25;1689986;84;21027;-69
2022/04/29 10:04:51;;;;;;;7.30;2.95;;;;;;;14.94;39.19;100441.87;1671117;84;21589;-68
2022/04/29 10:07:22;;;;;;;3.95;2.40;;;;;;;15.11;38.77;100441.03;1686739;84;21807;-68
2022/04/29 10:09:54;;;;;;;5.58;2.85;;;;;;;15.36;39.30;100437.70;1692732;84;21053;-70
2022/04/29 10:12:25;;;;;;;5.22;2.08;;;;;;;15.67;39.04;100443.58;1668850;84;21097;-68
2022/04/29 10:15:05;;;;;;;3.37;1.80;;;;;;;15.97;38.04;100443.61;1659685;84;21074;-67
2022/04/29 10:23:26;;;;;;;4.28;2.85;;;;;;;16.27;36.49;100434.50;1679380;84;21043;-68
2022/04/29 10:25:56;;;;;;;6.17;2.27;;;;;;;16.46;36.96;100435.44;1682904;84;21103;-68
2022/04/29 10:28:26;;;;;;;5.78;2.17;;;;;;;16.55;35.68;100436.75;1665270;84;21015;-69
2022/04/29 10:31:06;;;;;;;5.03;2.20;;;;;;;16.55;35.92;100437.56;1679176;84;21087;-69
2022/04/29 10:33:33;;;;;;;5.05;1.90;;;;;;;16.36;35.15;100434.45;1677774;84;21205;-68
2022/04/29 10:36:09;;;;;;;4.92;2.10;;;;;;;16.09;36.23;100437.96;1688052;84;21135;-68
2022/04/29 10:38:39;;;;;;;7.00;1.92;;;;;;;16.00;36.66;100433.83;1686415;84;21033;-70
2022/04/29 10:41:25;;;;;;;4.53;2.08;;;;;;;15.95;36.85;100438.95;1682918;84;21526;-66
2022/04/29 10:43:57;;;;;;;6.33;2.08;;;;;;;15.86;37.47;100436.80;1684663;84;21080;-72
2022/04/29 10:46:36;;;;;;;3.27;1.92;;;;;;;15.82;36.90;100433.31;1686437;84;21517;-68
2022/04/29 10:49:30;;;;;;;3.40;2.00;;;;;;;15.84;37.52;100432.98;1687334;84;21603;-67
2022/04/29 10:52:27;;;;;;;7.00;2.02;;;;;;;15.91;36.91;100424.94;1630061;87;21066;-68
2022/04/29 10:54:58;;;;;;;2.47;1.40;;;;;;;15.86;36.82;100428.47;1627297;87;21539;-67
2022/04/29 10:57:43;;;;;;;2.62;1.42;;;;;;;15.72;36.38;100418.97;1659042;84;21021;-68
2022/04/29 11:00:14;;;;;;;2.45;1.90;;;;;;;15.63;36.42;100415.66;1685604;84;21761;-68
2022/04/29 11:02:44;;;;;;;4.72;1.65;;;;;;;15.73;37.16;100414.46;1686295;84;21377;-69
2022/04/29 11:05:37;;;;;;;5.17;1.65;;;;;;;15.91;37.66;100412.44;1692718;84;21522;-68
2022/04/29 11:08:11;;;;;;;4.20;1.60;;;;;;;16.00;36.43;100411.60;1687989;84;21066;-67
2022/04/29 11:11:02;;;;;;;2.05;1.42;;;;;;;16.07;35.93;100411.87;1688056;84;21002;-70
2022/04/29 11:13:34;;;;;;;2.65;1.45;;;;;;;16.16;36.11;100404.87;1684347;84;22006;-69
2022/04/29 11:16:19;;;;;;;6.03;1.42;;;;;;;16.12;35.12;100404.72;1690297;84;21066;-70
2022/04/29 11:18:56;;;;;;;5.47;1.57;;;;;;;15.99;35.45;100405.22;1680180;84;21019;-69
2022/04/29 11:27:04;;;;;;;4.58;1.37;;;;;;;16.04;36.54;100402.25;1689741;84;21524;-70
2022/04/29 11:29:31;;;;;;;2.35;1.32;;;;;;;16.21;36.35;100394.95;1689464;84;21034;-71
2022/04/29 11:32:04;;;;;;;1.45;1.30;;;;;;;16.34;36.78;100390.86;1688320;84;21382;-67
2022/04/29 11:34:30;;;;;;;3.55;1.07;;;;;;;16.42;34.70;100390.80;1666888;84;21121;-68
2022/04/29 11:36:57;;;;;;;3.08;1.42;;;;;;;16.33;34.53;100395.59;1659668;85;21154;-69
2022/04/29 11:39:24;;;;;;;4.25;1.17;;;;;;;16.21;34.85;100393.55;1636961;87;21374;-69
2022/04/29 11:41:57;;;;;;;2.67;1.30;;;;;;;16.16;33.88;100388.19;1634671;87;21414;-68
2022/04/29 11:44:38;;;;;;;6.03;1.67;;;;;;;16.15;34.22;100381.02;1686731;84;21088;-69
2022/04/29 11:47:08;;;;;;;2.52;1.65;;;;;;;16.36;34.67;100380.22;1679736;84;21022;-69
2022/04/29 11:49:36;;;;;;;4.95;1.30;;;;;;;16.66;35.40;100382.34;1683186;84;21710;-67
2022/04/29 11:52:30;;;;;;;1.72;1.15;;;;;;;16.91;33.65;100376.05;1682880;84;21155;-68
2022/04/29 11:55:19;;;;;;;2.60;1.40;;;;;;;16.98;32.90;100369.34;1686546;84;21458;-66
2022/04/29 11:57:55;;;;;;;3.00;1.75;;;;;;;16.98;32.82;100369.92;1636471;87;21019;-67
2022/04/29 12:00:25;;;;;;;2.37;1.60;;;;;;;16.95;33.58;100367.83;1636607;87;21092;-70
2022/04/29 12:02:52;;;;;;;4.90;1.10;;;;;;;16.96;33.58;100366.66;1623209;87;21107;-70
2022/04/29 12:05:26;;;;;;;3.62;1.42;;;;;;;16.80;34.37;100360.38;1651685;85;21413;-68
2022/04/29 12:07:54;;;;;;;4.83;1.60;;;;;;;16.78;35.04;100362.11;1633036;86;21074;-69
2022/04/29 12:10:30;;;;;;;2.52;1.27;;;;;;;16.97;35.34;100352.43;1650685;86;21038;-67
2022/04/29 12:12:57;;;;;;;2.45;1.30;;;;;;;17.10;33.91;100350.51;1634921;85;21395;-68
2022/04/29 12:15:34;;;;;;;5.22;1.70;;;;;;;17.18;33.08;100352.95;1651769;86;21488;-69
2022/04/29 12:18:08;;;;;;;2.77;1.65;;;;;;;17.15;34.39;100356.42;1654108;85;21092;-71
2022/04/29 12:20:40;;;;;;;2.50;1.47;;;;;;;17.25;33.55;100346.81;1649289;86;21532;-69
2022/04/29 12:23:22;;;;;;;4.80;1.37;;;;;;;17.35;33.57;100345.56;1652567;85;21095;-69
2022/04/29 12:25:52;;;;;;;1.55;1.02;;;;;;;17.35;32.79;100334.43;1649032;86;21141;-68
2022/04/29 12:28:26;;;;;;;1.65;1.45;;;;;;;17.39;33.17;100337.55;1651334;86;21043;-67
2022/04/29 12:36:58;;;;;;;2.20;1.60;;;;;;;17.46;32.64;100325.02;1649975;86;21062;-67